Time;durP1;ratioP1;P1;durP2;ratioP2;P2;SDS_P1;SDS_P2;PMS_P1;PMS_P2;Temp;Humidity;BMP_temperature;BMP_pressure;BME280_temperature;BME280_humidity;BME280_pressure;Samples;Min_cycle;Max_cycle;Signal;HPM_P1;HPM_P2
2023/03/04 00:00:57;;;;;;;;;;;4.50;99.90;;;;;;4923191;29;20353;-76
2023/03/04 00:03:24;;;;;;;;;;;4.50;99.90;;;;;;4913988;29;19933;-76
2023/03/04 00:05:52;;;;;;;;;;;4.40;99.90;;;;;;4929516;29;19958;-76
2023/03/04 00:08:19;;;;;;;;;;;4.40;99.90;;;;;;4922631;29;20427;-76
2023/03/04 00:10:45;;;;;;;;;;;4.40;99.90;;;;;;4929672;29;19927;-77
2023/03/04 00:13:12;;;;;;;;;;;4.40;99.90;;;;;;4930252;29;19965;-76
2023/03/04 00:15:39;;;;;;;;;;;4.40;99.90;;;;;;4936583;29;20041;-76
2023/03/04 00:18:06;;;;;;;;;;;4.40;99.90;;;;;;4926823;28;20021;-76
2023/03/04 00:20:33;;;;;;;;;;;4.40;99.90;;;;;;4924024;29;20663;-76
2023/03/04 00:23:01;;;;;;;;;;;4.30;99.90;;;;;;4931532;29;19927;-76
2023/03/04 00:25:28;;;;;;;;;;;4.30;99.90;;;;;;4931281;29;19981;-76
2023/03/04 00:27:55;;;;;;;;;;;4.30;99.90;;;;;;4935630;29;19927;-75
2023/03/04 00:30:21;;;;;;;;;;;4.30;99.90;;;;;;4918183;29;20404;-75
2023/03/04 00:32:48;;;;;;;;;;;4.30;99.90;;;;;;4923628;29;19927;-75
2023/03/04 00:35:15;;;;;;;;;;;4.30;99.90;;;;;;4933682;29;20022;-75
2023/03/04 00:37:42;;;;;;;;;;;4.30;99.90;;;;;;4916326;29;20436;-75
2023/03/04 00:40:12;;;;;;;;;;;4.30;99.90;;;;;;4934591;29;19927;-75
2023/03/04 00:42:39;;;;;;;;;;;4.20;99.90;;;;;;4916704;29;19936;-75
2023/03/04 00:45:06;;;;;;;;;;;4.20;99.90;;;;;;4932225;29;20057;-74
2023/03/04 00:47:33;;;;;;;;;;;4.20;99.90;;;;;;4933225;29;20329;-75
2023/03/04 00:50:00;;;;;;;;;;;4.20;99.90;;;;;;4929984;29;19926;-75
2023/03/04 00:52:29;;;;;;;;;;;4.20;99.90;;;;;;4936353;29;19927;-75
2023/03/04 00:54:56;;;;;;;;;;;4.20;99.90;;;;;;4920719;29;19935;-76
2023/03/04 00:57:24;;;;;;;;;;;4.20;99.90;;;;;;4934241;29;19930;-75
2023/03/04 00:59:51;;;;;;;;;;;4.10;99.90;;;;;;4922914;29;19974;-75
2023/03/04 01:02:18;;;;;;;;;;;4.10;99.90;;;;;;4914278;29;20378;-76
2023/03/04 01:04:44;;;;;;;;;;;4.10;99.90;;;;;;4936356;29;19934;-75
2023/03/04 01:07:11;;;;;;;;;;;4.10;99.90;;;;;;4919544;29;19933;-75
2023/03/04 01:09:38;;;;;;;;;;;4.10;99.90;;;;;;4940715;29;19930;-75
2023/03/04 01:12:05;;;;;;;;;;;4.10;99.90;;;;;;4947765;29;19993;-76
2023/03/04 01:14:34;;;;;;;;;;;4.10;99.90;;;;;;4939211;29;19927;-75
2023/03/04 01:17:00;;;;;;;;;;;4.10;99.90;;;;;;4925772;29;19957;-75
2023/03/04 01:19:27;;;;;;;;;;;4.00;99.90;;;;;;4910358;29;19962;-75
2023/03/04 01:21:54;;;;;;;;;;;4.00;99.90;;;;;;4931898;29;19931;-75
2023/03/04 01:24:22;;;;;;;;;;;4.00;99.90;;;;;;4909294;29;19982;-75
2023/03/04 01:26:49;;;;;;;;;;;4.00;99.90;;;;;;4932425;29;19977;-76
2023/03/04 01:29:16;;;;;;;;;;;4.00;99.90;;;;;;4929465;29;19958;-75
2023/03/04 01:31:44;;;;;;;;;;;4.00;99.90;;;;;;4930342;29;20444;-75
2023/03/04 01:34:11;;;;;;;;;;;4.00;99.90;;;;;;4918338;29;19927;-75
2023/03/04 01:36:37;;;;;;;;;;;4.00;99.90;;;;;;4912772;29;20014;-75
2023/03/04 01:39:04;;;;;;;;;;;4.00;99.90;;;;;;4930759;29;19946;-75
2023/03/04 01:41:31;;;;;;;;;;;4.00;99.90;;;;;;4937577;29;19965;-75
2023/03/04 01:44:01;;;;;;;;;;;3.90;99.90;;;;;;4926633;29;19930;-75
2023/03/04 01:46:28;;;;;;;;;;;3.90;99.90;;;;;;4926306;29;19927;-75
2023/03/04 01:48:56;;;;;;;;;;;3.90;99.90;;;;;;4931845;29;19931;-75
2023/03/04 01:51:23;;;;;;;;;;;3.90;99.90;;;;;;4929659;29;19974;-75
2023/03/04 01:53:52;;;;;;;;;;;3.90;99.90;;;;;;4909877;29;19928;-75
2023/03/04 01:56:19;;;;;;;;;;;3.90;99.90;;;;;;4914523;29;20034;-75
2023/03/04 01:59:06;;;;;;;;;;;3.90;99.90;;;;;;4932431;29;19973;-75
2023/03/04 02:01:36;;;;;;;;;;;3.90;99.90;;;;;;4926872;29;19930;-75
2023/03/04 02:04:07;;;;;;;;;;;3.90;99.90;;;;;;4930414;29;19961;-75
2023/03/04 02:06:34;;;;;;;;;;;3.90;99.90;;;;;;4932778;29;19934;-75
2023/03/04 02:09:01;;;;;;;;;;;3.80;99.90;;;;;;4927807;29;20021;-75
2023/03/04 02:11:28;;;;;;;;;;;3.80;99.90;;;;;;4914592;29;20413;-75
2023/03/04 02:13:55;;;;;;;;;;;3.80;99.90;;;;;;4918358;29;19966;-75
2023/03/04 02:16:22;;;;;;;;;;;3.80;99.90;;;;;;4932374;29;19927;-75
2023/03/04 02:18:49;;;;;;;;;;;3.80;99.90;;;;;;4932679;29;19935;-75
2023/03/04 02:21:21;;;;;;;;;;;3.80;99.90;;;;;;4914051;29;20034;-75
2023/03/04 02:23:52;;;;;;;;;;;3.80;99.90;;;;;;4927740;29;20447;-75
2023/03/04 02:26:22;;;;;;;;;;;3.80;99.90;;;;;;4928462;29;19933;-75
2023/03/04 02:28:52;;;;;;;;;;;3.80;99.90;;;;;;4930939;29;19934;-75
2023/03/04 02:31:22;;;;;;;;;;;3.70;99.90;;;;;;4938071;29;19994;-75
2023/03/04 02:33:49;;;;;;;;;;;3.70;99.90;;;;;;4911229;29;19927;-75
2023/03/04 02:36:16;;;;;;;;;;;3.80;99.90;;;;;;4922967;29;19931;-75
2023/03/04 02:38:43;;;;;;;;;;;3.70;99.90;;;;;;4914740;29;20350;-76
2023/03/04 02:41:12;;;;;;;;;;;3.70;99.90;;;;;;4931892;29;20010;-75
2023/03/04 02:43:40;;;;;;;;;;;3.70;99.90;;;;;;4915349;29;19935;-75
2023/03/04 02:46:10;;;;;;;;;;;3.70;99.90;;;;;;4923545;29;19958;-76
2023/03/04 02:48:37;;;;;;;;;;;3.70;99.90;;;;;;4910614;29;19935;-75
2023/03/04 02:51:04;;;;;;;;;;;3.60;99.90;;;;;;4909539;29;19982;-75
2023/03/04 02:53:32;;;;;;;;;;;3.70;99.90;;;;;;4913481;29;19934;-75
2023/03/04 02:56:00;;;;;;;;;;;3.70;99.90;;;;;;4933346;29;20026;-75
2023/03/04 02:58:31;;;;;;;;;;;3.60;99.90;;;;;;4927262;29;19982;-75
2023/03/04 03:01:00;;;;;;;;;;;3.60;99.90;;;;;;4913270;29;19970;-75
2023/03/04 03:03:28;;;;;;;;;;;3.60;99.90;;;;;;4911121;29;19937;-75
2023/03/04 03:05:55;;;;;;;;;;;3.60;99.90;;;;;;4929675;29;19958;-75
2023/03/04 03:08:23;;;;;;;;;;;3.60;99.90;;;;;;4916529;29;20245;-75
2023/03/04 03:10:50;;;;;;;;;;;3.60;99.90;;;;;;4925112;29;19927;-75
2023/03/04 03:13:18;;;;;;;;;;;3.60;99.90;;;;;;4929704;29;19935;-75
2023/03/04 03:15:45;;;;;;;;;;;3.60;99.90;;;;;;4908313;29;19957;-75
2023/03/04 03:18:13;;;;;;;;;;;3.60;99.90;;;;;;4930218;29;19927;-75
2023/03/04 03:20:42;;;;;;;;;;;3.50;99.90;;;;;;4939198;29;20592;-76
2023/03/04 03:23:09;;;;;;;;;;;3.50;99.90;;;;;;4940860;29;20412;-75
2023/03/04 03:25:36;;;;;;;;;;;3.50;99.90;;;;;;4929524;29;20045;-75
2023/03/04 03:28:02;;;;;;;;;;;3.50;99.90;;;;;;4921229;29;20302;-75
2023/03/04 03:30:30;;;;;;;;;;;3.50;99.90;;;;;;4912752;29;19935;-75
2023/03/04 03:32:57;;;;;;;;;;;3.50;99.90;;;;;;4918609;29;19934;-75
2023/03/04 03:35:25;;;;;;;;;;;3.50;99.90;;;;;;4902096;29;19928;-75
2023/03/04 03:37:52;;;;;;;;;;;3.50;99.90;;;;;;4912821;29;19990;-75
2023/03/04 03:40:19;;;;;;;;;;;3.50;99.90;;;;;;4928511;29;20017;-76
2023/03/04 03:42:46;;;;;;;;;;;3.50;99.90;;;;;;4925229;29;19931;-75
2023/03/04 03:45:13;;;;;;;;;;;3.50;99.90;;;;;;4922247;29;20348;-75
2023/03/04 03:47:39;;;;;;;;;;;3.40;99.90;;;;;;4915968;29;19991;-75
2023/03/04 03:50:07;;;;;;;;;;;3.40;99.90;;;;;;4908935;29;19954;-75
2023/03/04 03:52:35;;;;;;;;;;;3.40;99.90;;;;;;4904386;29;19932;-75
2023/03/04 03:55:02;;;;;;;;;;;3.40;99.90;;;;;;4919816;29;20029;-75
2023/03/04 03:57:30;;;;;;;;;;;3.40;99.90;;;;;;4924992;29;19931;-75
2023/03/04 03:59:58;;;;;;;;;;;3.40;99.90;;;;;;4921674;29;20413;-75
2023/03/04 04:02:25;;;;;;;;;;;3.40;99.90;;;;;;4924966;29;19927;-75
2023/03/04 04:04:52;;;;;;;;;;;3.40;99.90;;;;;;4938411;28;20020;-75
2023/03/04 04:07:18;;;;;;;;;;;3.40;99.90;;;;;;4919695;29;19934;-75
2023/03/04 04:09:47;;;;;;;;;;;3.30;99.90;;;;;;4927647;29;19978;-75
2023/03/04 04:12:15;;;;;;;;;;;3.30;99.90;;;;;;4933389;29;20033;-75
2023/03/04 04:14:42;;;;;;;;;;;3.30;99.90;;;;;;4932666;29;19934;-75
2023/03/04 04:17:09;;;;;;;;;;;3.30;99.90;;;;;;4933845;29;19926;-75
2023/03/04 04:19:36;;;;;;;;;;;3.30;99.90;;;;;;4930025;29;20539;-76
2023/03/04 04:22:03;;;;;;;;;;;3.30;99.90;;;;;;4934546;29;20842;-76
2023/03/04 04:24:30;;;;;;;;;;;3.30;99.90;;;;;;4930376;29;20370;-77
2023/03/04 04:26:58;;;;;;;;;;;3.30;99.90;;;;;;4931097;29;19933;-76
2023/03/04 04:29:25;;;;;;;;;;;3.30;99.90;;;;;;4928955;29;20021;-76
2023/03/04 04:31:51;;;;;;;;;;;3.20;99.90;;;;;;4914220;29;20404;-77
2023/03/04 04:34:18;;;;;;;;;;;3.20;99.90;;;;;;4916038;29;19926;-76
2023/03/04 04:36:45;;;;;;;;;;;3.20;99.90;;;;;;4933096;29;21214;-76
2023/03/04 04:39:12;;;;;;;;;;;3.20;99.90;;;;;;4922996;29;19934;-76
2023/03/04 04:41:40;;;;;;;;;;;3.20;99.90;;;;;;4934542;29;19974;-76
2023/03/04 04:44:09;;;;;;;;;;;3.20;99.90;;;;;;4923067;29;19946;-76
2023/03/04 04:46:36;;;;;;;;;;;3.10;99.90;;;;;;4933527;29;20007;-76
2023/03/04 04:49:04;;;;;;;;;;;3.10;99.90;;;;;;4930857;29;20005;-77
2023/03/04 04:51:31;;;;;;;;;;;3.10;99.90;;;;;;4926854;29;20416;-77
2023/03/04 04:53:58;;;;;;;;;;;3.10;99.90;;;;;;4931226;29;19937;-76
2023/03/04 04:56:26;;;;;;;;;;;3.10;99.90;;;;;;4931615;29;20314;-75
2023/03/04 04:58:53;;;;;;;;;;;3.00;99.90;;;;;;4926566;29;19935;-76
2023/03/04 05:01:21;;;;;;;;;;;3.00;99.90;;;;;;4927257;29;19930;-76
2023/03/04 05:03:51;;;;;;;;;;;3.00;99.90;;;;;;4931977;29;19942;-76
2023/03/04 05:06:19;;;;;;;;;;;3.00;99.90;;;;;;4909988;29;20393;-76
2023/03/04 05:08:46;;;;;;;;;;;3.00;99.90;;;;;;4931804;29;19982;-76
2023/03/04 05:11:16;;;;;;;;;;;3.00;99.90;;;;;;4917682;29;19927;-76
2023/03/04 05:13:42;;;;;;;;;;;3.00;99.90;;;;;;4911940;29;20844;-77
2023/03/04 05:16:09;;;;;;;;;;;3.00;99.90;;;;;;4928591;29;19933;-76
2023/03/04 05:18:37;;;;;;;;;;;3.00;99.90;;;;;;4930274;29;19930;-77
2023/03/04 05:21:04;;;;;;;;;;;3.00;99.90;;;;;;4933014;29;20030;-75
2023/03/04 05:23:32;;;;;;;;;;;3.00;99.90;;;;;;4930507;29;19950;-77
2023/03/04 05:25:59;;;;;;;;;;;3.00;99.90;;;;;;4924236;29;20025;-76
2023/03/04 05:28:26;;;;;;;;;;;2.90;99.90;;;;;;4940892;29;19927;-77
2023/03/04 05:30:53;;;;;;;;;;;2.90;99.90;;;;;;4937145;29;19962;-76
2023/03/04 05:33:20;;;;;;;;;;;2.90;99.90;;;;;;4932541;28;20389;-77
2023/03/04 05:35:49;;;;;;;;;;;2.90;99.90;;;;;;4930188;29;19934;-78
2023/03/04 05:38:18;;;;;;;;;;;2.90;99.90;;;;;;4932946;29;20329;-77
2023/03/04 05:40:45;;;;;;;;;;;2.90;99.90;;;;;;4928636;29;20025;-78
2023/03/04 05:43:12;;;;;;;;;;;2.80;99.90;;;;;;4926843;29;19926;-78
2023/03/04 05:45:39;;;;;;;;;;;2.80;99.90;;;;;;4930221;29;20290;-78
2023/03/04 05:48:06;;;;;;;;;;;2.80;99.90;;;;;;4915529;29;20445;-77
2023/03/04 05:50:33;;;;;;;;;;;2.80;99.90;;;;;;4910307;29;20849;-77
2023/03/04 05:53:02;;;;;;;;;;;2.80;99.90;;;;;;4927928;29;19970;-77
2023/03/04 05:55:29;;;;;;;;;;;2.80;99.90;;;;;;4928464;29;20014;-77
2023/03/04 05:57:56;;;;;;;;;;;2.80;99.90;;;;;;4931028;29;19942;-77
2023/03/04 06:00:23;;;;;;;;;;;2.80;99.90;;;;;;4912101;29;19931;-78
2023/03/04 06:02:49;;;;;;;;;;;2.80;99.90;;;;;;4933861;29;19927;-77
2023/03/04 06:05:17;;;;;;;;;;;2.70;99.90;;;;;;4931256;28;20271;-77
2023/03/04 06:07:44;;;;;;;;;;;2.70;99.90;;;;;;4915115;29;19927;-77
2023/03/04 06:10:13;;;;;;;;;;;2.70;99.90;;;;;;4924259;29;19938;-78
2023/03/04 06:12:41;;;;;;;;;;;2.70;99.90;;;;;;4920646;29;20468;-78
2023/03/04 06:15:09;;;;;;;;;;;2.70;99.90;;;;;;4928117;29;20041;-78
2023/03/04 06:17:36;;;;;;;;;;;2.70;99.90;;;;;;4927507;29;20283;-77
2023/03/04 07:01:50;;;;;;;;;;;2.60;99.90;;;;;;4931232;29;19949;-80
2023/03/04 07:06:54;;;;;;;;;;;2.60;99.90;;;;;;4930233;29;20468;-81
2023/03/04 07:09:27;;;;;;;;;;;2.60;99.90;;;;;;4931721;29;19971;-79
2023/03/04 07:11:54;;;;;;;;;;;2.50;99.90;;;;;;4927480;29;19927;-78
2023/03/04 07:14:20;;;;;;;;;;;2.50;99.90;;;;;;4909221;29;19934;-77
2023/03/04 07:16:49;;;;;;;;;;;2.50;99.90;;;;;;4898216;29;19931;-77
2023/03/04 07:19:18;;;;;;;;;;;2.50;99.90;;;;;;4924784;29;19927;-80
2023/03/04 07:21:45;;;;;;;;;;;2.50;99.90;;;;;;4908521;29;19951;-78
2023/03/04 07:30:21;;;;;;;;;;;2.50;99.90;;;;;;5818078;23;19917;-81
2023/03/04 08:39:08;;;;;;;;;;;2.40;99.90;;;;;;5482311;23;19934;-76
2023/03/04 08:41:34;;;;;;;;;;;2.40;99.90;;;;;;4904927;29;19931;-76
2023/03/04 08:44:01;;;;;;;;;;;2.50;99.90;;;;;;4907808;29;20429;-77
2023/03/04 08:46:28;;;;;;;;;;;2.50;99.90;;;;;;4890361;29;20054;-77
2023/03/04 08:48:55;;;;;;;;;;;2.50;99.90;;;;;;4883700;29;19943;-75
2023/03/04 08:51:22;;;;;;;;;;;2.50;99.90;;;;;;4901723;29;20038;-76
2023/03/04 08:53:49;;;;;;;;;;;2.60;99.90;;;;;;4905400;29;20301;-77
2023/03/04 08:56:17;;;;;;;;;;;2.60;99.90;;;;;;4907097;29;19927;-77
2023/03/04 08:58:44;;;;;;;;;;;2.50;99.90;;;;;;4893901;29;19939;-75
2023/03/04 09:01:12;;;;;;;;;;;2.50;99.90;;;;;;4912852;29;20401;-75
2023/03/04 09:03:39;;;;;;;;;;;2.60;99.90;;;;;;4909405;29;19931;-75
2023/03/04 09:06:06;;;;;;;;;;;2.60;99.90;;;;;;4892718;29;20872;-76
2023/03/04 09:08:34;;;;;;;;;;;2.60;99.90;;;;;;4907386;29;19935;-76
2023/03/04 09:11:00;;;;;;;;;;;2.60;99.90;;;;;;4908641;29;19927;-76
2023/03/04 09:13:30;;;;;;;;;;;2.70;99.90;;;;;;4905893;29;19990;-75
2023/03/04 09:15:57;;;;;;;;;;;2.70;99.90;;;;;;4906091;29;19962;-75
2023/03/04 09:18:24;;;;;;;;;;;2.80;99.90;;;;;;4907019;29;19931;-76
2023/03/04 09:20:55;;;;;;;;;;;2.70;99.90;;;;;;4903356;29;19938;-76
2023/03/04 09:23:22;;;;;;;;;;;2.70;99.90;;;;;;4894807;29;19939;-77
2023/03/04 09:25:48;;;;;;;;;;;2.70;99.90;;;;;;4913043;29;19969;-77
2023/03/04 09:28:16;;;;;;;;;;;2.80;99.90;;;;;;4896781;29;20309;-77
2023/03/04 09:30:44;;;;;;;;;;;2.80;99.90;;;;;;4895306;29;20006;-77
2023/03/04 09:33:11;;;;;;;;;;;2.80;99.90;;;;;;4895999;29;19931;-76
2023/03/04 09:35:38;;;;;;;;;;;2.80;99.90;;;;;;4910854;29;20354;-76
2023/03/04 09:38:04;;;;;;;;;;;2.80;99.90;;;;;;4908934;29;19937;-78
2023/03/04 09:40:33;;;;;;;;;;;2.80;99.90;;;;;;4906705;29;20306;-77
2023/03/04 09:43:02;;;;;;;;;;;2.80;99.90;;;;;;4907371;29;19928;-77
2023/03/04 09:45:34;;;;;;;;;;;2.90;99.90;;;;;;4898815;29;19987;-79
2023/03/04 09:48:03;;;;;;;;;;;2.90;99.90;;;;;;4908264;29;19927;-76
2023/03/04 09:50:33;;;;;;;;;;;2.90;99.90;;;;;;4910354;29;19951;-78
2023/03/04 09:53:06;;;;;;;;;;;3.00;99.90;;;;;;4918017;29;19927;-79
2023/03/04 09:55:34;;;;;;;;;;;3.00;99.90;;;;;;4897367;29;19974;-77
2023/03/04 09:58:04;;;;;;;;;;;2.90;99.90;;;;;;4908458;29;19931;-77
2023/03/04 10:00:33;;;;;;;;;;;3.00;99.90;;;;;;4891893;29;20080;-76
2023/03/04 10:03:06;;;;;;;;;;;3.00;99.90;;;;;;4906151;29;19966;-76
2023/03/04 10:05:36;;;;;;;;;;;3.00;99.90;;;;;;4901233;29;19956;-79
2023/03/04 10:08:08;;;;;;;;;;;3.00;99.90;;;;;;4906849;29;19957;-79
2023/03/04 10:10:36;;;;;;;;;;;2.90;99.90;;;;;;4907189;29;19935;-78
2023/03/04 10:13:06;;;;;;;;;;;2.90;99.90;;;;;;4897173;29;19935;-79
2023/03/04 10:15:36;;;;;;;;;;;2.80;99.90;;;;;;4910285;29;19978;-77
2023/03/04 10:18:11;;;;;;;;;;;2.90;99.90;;;;;;4911468;29;19939;-79
2023/03/04 10:20:44;;;;;;;;;;;2.90;99.90;;;;;;4902241;29;19969;-80
2023/03/04 10:23:14;;;;;;;;;;;2.90;99.90;;;;;;4901805;29;19934;-76
2023/03/04 10:25:43;;;;;;;;;;;3.00;99.90;;;;;;4906445;29;19983;-74
2023/03/04 10:28:12;;;;;;;;;;;3.00;99.90;;;;;;4909847;29;19964;-78
2023/03/04 10:30:43;;;;;;;;;;;3.00;99.90;;;;;;4907903;29;20518;-77
2023/03/04 10:33:13;;;;;;;;;;;3.00;99.90;;;;;;4903048;29;19967;-77
2023/03/04 10:35:43;;;;;;;;;;;3.00;99.90;;;;;;4910755;29;20496;-79
2023/03/04 10:38:11;;;;;;;;;;;3.00;99.90;;;;;;4896678;29;19927;-79
2023/03/04 10:40:40;;;;;;;;;;;3.00;99.90;;;;;;4902466;29;19927;-77
2023/03/04 10:43:13;;;;;;;;;;;3.10;99.90;;;;;;4889178;29;20465;-78
2023/03/04 10:45:41;;;;;;;;;;;3.20;99.90;;;;;;4912887;29;20305;-77
2023/03/04 10:48:17;;;;;;;;;;;3.20;99.90;;;;;;4908689;29;21049;-77
2023/03/04 10:50:45;;;;;;;;;;;3.20;99.90;;;;;;4890681;29;20393;-77
2023/03/04 10:53:21;;;;;;;;;;;3.30;99.90;;;;;;4892735;29;19928;-75
2023/03/04 10:55:48;;;;;;;;;;;3.30;99.90;;;;;;4909245;29;19931;-75
2023/03/04 10:58:17;;;;;;;;;;;3.20;99.90;;;;;;4907871;29;20381;-76
2023/03/04 11:00:44;;;;;;;;;;;3.20;99.90;;;;;;4886901;29;19982;-76
2023/03/04 11:03:24;;;;;;;;;;;3.20;99.90;;;;;;4891586;29;19935;-76
2023/03/04 11:06:03;;;;;;;;;;;3.20;99.90;;;;;;4903775;29;19998;-77
2023/03/04 11:08:30;;;;;;;;;;;3.30;99.90;;;;;;4912065;29;19956;-80
2023/03/04 11:10:57;;;;;;;;;;;3.30;99.90;;;;;;4891520;29;20365;-75
2023/03/04 11:13:24;;;;;;;;;;;3.30;99.90;;;;;;4905887;29;20424;-76
2023/03/04 11:15:52;;;;;;;;;;;3.30;99.90;;;;;;4906274;29;20353;-75
2023/03/04 11:18:23;;;;;;;;;;;3.20;99.90;;;;;;4910412;29;19927;-76
2023/03/04 11:20:50;;;;;;;;;;;3.30;99.90;;;;;;4890621;29;19928;-76
2023/03/04 11:23:22;;;;;;;;;;;3.30;99.90;;;;;;4905159;29;19931;-76
2023/03/04 11:25:51;;;;;;;;;;;3.30;99.90;;;;;;4909515;29;19927;-76
2023/03/04 11:28:22;;;;;;;;;;;3.30;99.90;;;;;;4907375;29;19935;-76
2023/03/04 11:30:51;;;;;;;;;;;3.30;99.90;;;;;;4904365;29;19935;-76
2023/03/04 11:33:25;;;;;;;;;;;3.20;99.90;;;;;;4898215;29;19928;-75
2023/03/04 11:35:58;;;;;;;;;;;3.20;99.90;;;;;;4893290;29;19963;-79
2023/03/04 11:38:31;;;;;;;;;;;3.20;99.90;;;;;;4906740;29;19927;-76
2023/03/04 11:41:00;;;;;;;;;;;3.10;99.90;;;;;;4902084;29;19931;-75
2023/03/04 11:43:30;;;;;;;;;;;3.10;99.90;;;;;;4909637;29;20006;-77
2023/03/04 11:46:06;;;;;;;;;;;3.10;99.90;;;;;;4901619;29;20776;-76
2023/03/04 11:48:40;;;;;;;;;;;3.20;99.90;;;;;;4905306;29;19950;-76
2023/03/04 11:51:09;;;;;;;;;;;3.20;99.90;;;;;;4903044;29;20409;-75
2023/03/04 11:53:40;;;;;;;;;;;3.20;99.90;;;;;;4906226;29;20431;-77
2023/03/04 11:56:16;;;;;;;;;;;3.20;99.90;;;;;;4888283;29;20434;-77
2023/03/04 11:59:07;;;;;;;;;;;3.20;99.90;;;;;;4907075;29;20434;-79
2023/03/04 12:01:38;;;;;;;;;;;3.10;99.90;;;;;;4896268;29;20378;-77
2023/03/04 12:04:25;;;;;;;;;;;3.20;99.90;;;;;;4915433;29;19928;-76
2023/03/04 12:06:56;;;;;;;;;;;3.20;99.90;;;;;;4920186;29;19934;-79
2023/03/04 12:09:56;;;;;;;;;;;3.20;99.90;;;;;;4939891;29;19949;-80
2023/03/04 12:12:31;;;;;;;;;;;3.20;99.90;;;;;;4903244;29;19927;-80
2023/03/04 12:15:08;;;;;;;;;;;3.10;99.90;;;;;;4912622;29;19943;-79
2023/03/04 12:17:46;;;;;;;;;;;3.10;99.90;;;;;;4915931;29;19937;-79
2023/03/04 12:20:30;;;;;;;;;;;3.10;99.90;;;;;;4896443;29;20341;-78
2023/03/04 12:23:04;;;;;;;;;;;3.00;99.90;;;;;;4885586;29;19927;-77
2023/03/04 12:25:39;;;;;;;;;;;3.00;99.90;;;;;;4903849;29;20390;-78
2023/03/04 12:28:24;;;;;;;;;;;3.00;99.90;;;;;;4894469;29;19928;-80
2023/03/04 12:31:08;;;;;;;;;;;3.00;99.90;;;;;;4909292;29;19927;-80
2023/03/04 12:43:32;;;;;;;;;;;3.30;99.90;;;;;;4899223;29;19934;-76
2023/03/04 12:46:04;;;;;;;;;;;3.40;99.90;;;;;;4904455;29;19946;-72
2023/03/04 12:48:33;;;;;;;;;;;3.40;99.90;;;;;;4937793;23;19974;-79
2023/03/04 12:51:07;;;;;;;;;;;3.40;99.90;;;;;;4923235;29;19963;-80
2023/03/04 12:53:39;;;;;;;;;;;3.30;99.90;;;;;;4906460;29;20364;-80
2023/03/04 12:56:06;;;;;;;;;;;3.40;99.90;;;;;;4906072;29;19963;-80
2023/03/04 12:58:35;;;;;;;;;;;3.40;99.90;;;;;;4929632;29;19933;-80
2023/03/04 13:01:06;;;;;;;;;;;3.40;99.90;;;;;;4912634;29;20022;-80
2023/03/04 13:03:40;;;;;;;;;;;3.40;99.90;;;;;;4927001;29;19926;-80
2023/03/04 13:06:13;;;;;;;;;;;3.40;99.90;;;;;;4912196;29;19935;-80
2023/03/04 13:08:46;;;;;;;;;;;3.40;99.90;;;;;;4931003;29;19926;-80
2023/03/04 13:11:39;;;;;;;;;;;3.40;99.90;;;;;;4927067;29;20401;-80
2023/03/04 13:14:22;;;;;;;;;;;3.40;99.90;;;;;;4929704;29;20477;-79
2023/03/04 13:16:52;;;;;;;;;;;3.50;99.90;;;;;;4923141;29;19933;-80
2023/03/04 13:19:38;;;;;;;;;;;3.50;99.90;;;;;;4916148;29;19934;-80
2023/03/04 13:22:26;;;;;;;;;;;3.50;99.90;;;;;;4913175;29;20325;-80
2023/03/04 13:24:53;;;;;;;;;;;3.50;99.90;;;;;;4913888;29;19965;-80
2023/03/04 13:27:38;;;;;;;;;;;3.50;99.90;;;;;;4904950;29;20429;-80
2023/03/04 13:30:29;;;;;;;;;;;3.50;99.90;;;;;;4925670;29;19934;-80
2023/03/04 13:32:56;;;;;;;;;;;3.50;99.90;;;;;;4920132;29;19928;-80
2023/03/04 13:35:42;;;;;;;;;;;3.60;99.90;;;;;;4905125;29;19934;-79
2023/03/04 13:38:19;;;;;;;;;;;3.60;99.90;;;;;;4927174;29;19930;-80
2023/03/04 13:41:07;;;;;;;;;;;3.60;99.90;;;;;;4920046;29;19933;-80
2023/03/04 13:43:38;;;;;;;;;;;3.60;99.90;;;;;;4924701;29;19927;-80
2023/03/04 13:46:25;;;;;;;;;;;3.60;99.90;;;;;;4920770;29;20305;-80
2023/03/04 13:49:01;;;;;;;;;;;3.60;99.90;;;;;;4912747;29;19927;-80
2023/03/04 13:51:30;;;;;;;;;;;3.70;99.90;;;;;;4922222;29;19994;-80
2023/03/04 13:54:07;;;;;;;;;;;3.70;99.90;;;;;;4924274;29;19934;-80
2023/03/04 13:56:35;;;;;;;;;;;3.70;99.90;;;;;;4923839;29;20437;-80
2023/03/04 13:59:12;;;;;;;;;;;3.70;99.90;;;;;;4924873;29;20382;-80
2023/03/04 14:01:49;;;;;;;;;;;3.70;99.90;;;;;;4930176;29;20025;-80
2023/03/04 14:04:18;;;;;;;;;;;3.70;99.90;;;;;;4913796;29;19935;-80
2023/03/04 14:06:46;;;;;;;;;;;3.70;99.90;;;;;;4908163;29;19926;-80
2023/03/04 14:09:13;;;;;;;;;;;3.70;99.90;;;;;;4913846;29;19927;-80
2023/03/04 14:11:43;;;;;;;;;;;3.70;99.90;;;;;;4909836;29;19934;-80
2023/03/04 14:14:12;;;;;;;;;;;3.80;99.90;;;;;;4914951;29;20014;-80
2023/03/04 14:16:40;;;;;;;;;;;3.70;99.90;;;;;;4910262;29;20017;-80
2023/03/04 14:19:13;;;;;;;;;;;3.80;99.90;;;;;;4932453;29;19931;-80
2023/03/04 14:21:45;;;;;;;;;;;3.80;99.90;;;;;;4927517;29;19927;-80
2023/03/04 14:24:17;;;;;;;;;;;3.80;99.90;;;;;;4913942;29;19966;-80
2023/03/04 14:26:44;;;;;;;;;;;3.80;99.90;;;;;;4923863;29;19930;-80
2023/03/04 14:29:21;;;;;;;;;;;3.80;99.90;;;;;;4933230;29;19911;-80
2023/03/04 14:31:48;;;;;;;;;;;3.80;99.90;;;;;;4928600;29;19931;-80
2023/03/04 14:34:22;;;;;;;;;;;3.80;99.90;;;;;;4934393;29;19934;-80
2023/03/04 14:36:50;;;;;;;;;;;3.80;99.90;;;;;;4930734;29;20002;-81
2023/03/04 14:39:18;;;;;;;;;;;3.80;99.90;;;;;;4928219;29;19955;-80
2023/03/04 14:41:47;;;;;;;;;;;3.80;99.90;;;;;;4929845;29;19934;-80
2023/03/04 14:44:18;;;;;;;;;;;3.80;99.90;;;;;;4928735;29;19927;-80
2023/03/04 14:46:47;;;;;;;;;;;3.80;99.90;;;;;;4930893;29;20481;-80
2023/03/04 14:49:15;;;;;;;;;;;3.80;99.90;;;;;;4924248;29;19934;-80
2023/03/04 14:51:44;;;;;;;;;;;3.90;99.90;;;;;;4927569;29;19931;-80
2023/03/04 14:54:41;;;;;;;;;;;3.80;99.90;;;;;;4923479;29;20393;-80
2023/03/04 14:57:28;;;;;;;;;;;3.80;99.90;;;;;;4928234;29;19927;-80
2023/03/04 14:59:55;;;;;;;;;;;3.80;99.90;;;;;;4919055;29;19969;-78
2023/03/04 15:02:31;;;;;;;;;;;3.80;99.90;;;;;;4916175;29;19934;-80
2023/03/04 15:11:23;;;;;;;;;;;3.80;99.90;;;;;;4901746;29;20099;-80
2023/03/04 15:13:52;;;;;;;;;;;3.80;99.90;;;;;;4877241;29;20318;-78
2023/03/04 15:16:22;;;;;;;;;;;3.80;99.90;;;;;;4867738;29;19928;-79
2023/03/04 15:19:02;;;;;;;;;;;3.80;99.90;;;;;;4879862;29;20323;-79
2023/03/04 15:21:31;;;;;;;;;;;3.80;99.90;;;;;;4882878;29;19974;-79
2023/03/04 15:24:03;;;;;;;;;;;3.80;99.90;;;;;;4896226;29;19931;-79
2023/03/04 15:26:45;;;;;;;;;;;3.70;99.90;;;;;;4875635;29;19953;-79
2023/03/04 15:29:13;;;;;;;;;;;3.70;99.90;;;;;;4873522;29;20475;-78
2023/03/04 15:31:40;;;;;;;;;;;3.70;99.90;;;;;;4872500;29;19932;-79
2023/03/04 15:34:11;;;;;;;;;;;3.70;99.90;;;;;;4879911;29;20014;-79
2023/03/04 15:36:38;;;;;;;;;;;3.70;99.90;;;;;;4870180;29;19931;-79
2023/03/04 15:39:06;;;;;;;;;;;3.80;99.90;;;;;;4868622;29;19928;-79
2023/03/04 15:41:35;;;;;;;;;;;3.80;99.90;;;;;;4869882;29;20011;-80
2023/03/04 15:44:02;;;;;;;;;;;3.80;99.90;;;;;;4862720;29;19936;-80
2023/03/04 15:46:29;;;;;;;;;;;3.80;99.90;;;;;;4872874;29;20013;-79
2023/03/04 15:48:56;;;;;;;;;;;3.80;99.90;;;;;;4873078;29;19946;-79
2023/03/04 15:51:23;;;;;;;;;;;3.80;99.90;;;;;;4869974;29;19987;-79
2023/03/04 15:53:51;;;;;;;;;;;3.80;99.90;;;;;;4874459;29;19959;-77
2023/03/04 15:56:19;;;;;;;;;;;3.80;99.90;;;;;;4882253;29;19955;-79
2023/03/04 15:58:53;;;;;;;;;;;3.80;99.90;;;;;;4886893;29;19928;-81
2023/03/04 16:01:20;;;;;;;;;;;3.80;99.90;;;;;;4891002;29;20034;-80
2023/03/04 16:03:48;;;;;;;;;;;3.70;99.90;;;;;;4895834;29;19936;-80
2023/03/04 16:06:17;;;;;;;;;;;3.70;99.90;;;;;;4886846;29;19938;-80
2023/03/04 16:08:44;;;;;;;;;;;3.70;99.90;;;;;;4887230;29;19938;-80
2023/03/04 16:11:15;;;;;;;;;;;3.70;99.90;;;;;;4894406;29;20305;-80
2023/03/04 16:13:42;;;;;;;;;;;3.70;99.90;;;;;;4877038;29;19967;-79
2023/03/04 16:16:11;;;;;;;;;;;3.70;99.90;;;;;;4875684;29;19939;-80
2023/03/04 16:18:39;;;;;;;;;;;3.70;99.90;;;;;;4889523;29;20395;-80
2023/03/04 16:21:07;;;;;;;;;;;3.60;99.90;;;;;;4888341;29;19943;-80
2023/03/04 16:23:39;;;;;;;;;;;3.60;99.90;;;;;;4889126;29;19927;-80
2023/03/04 16:26:11;;;;;;;;;;;3.60;99.90;;;;;;4872900;29;20347;-80
2023/03/04 16:28:38;;;;;;;;;;;3.60;99.90;;;;;;4874324;29;20365;-80
2023/03/04 16:31:05;;;;;;;;;;;3.60;99.90;;;;;;4881593;29;19953;-80
2023/03/04 16:33:34;;;;;;;;;;;3.50;99.90;;;;;;4876937;29;19932;-80
2023/03/04 16:36:02;;;;;;;;;;;3.60;99.90;;;;;;4879237;29;20621;-79
2023/03/04 16:38:33;;;;;;;;;;;3.50;99.90;;;;;;4890912;29;20302;-80
2023/03/04 16:41:00;;;;;;;;;;;3.50;99.90;;;;;;4882693;29;19928;-80
2023/03/04 16:43:28;;;;;;;;;;;3.50;99.90;;;;;;4881375;29;19935;-79
2023/03/04 16:45:55;;;;;;;;;;;3.50;99.90;;;;;;4878696;29;19939;-80
2023/03/04 16:48:21;;;;;;;;;;;3.50;99.90;;;;;;4906092;29;20000;-80
2023/03/04 16:50:50;;;;;;;;;;;3.40;99.90;;;;;;4900993;29;19932;-80
2023/03/04 16:53:35;;;;;;;;;;;3.40;99.90;;;;;;4889382;29;19934;-80
2023/03/04 16:56:05;;;;;;;;;;;3.40;99.90;;;;;;4890947;29;19927;-80
2023/03/04 16:58:32;;;;;;;;;;;3.40;99.90;;;;;;4880324;29;19928;-80